Time;durP1;ratioP1;P1;durP2;ratioP2;P2;SDS_P1;SDS_P2;PMS_P1;PMS_P2;Temp;Humidity;BMP_temperature;BMP_pressure;BME280_temperature;BME280_humidity;BME280_pressure;Samples;Min_cycle;Max_cycle;Signal;HPM_P1;HPM_P2
2021/06/16 00:01:56;;;;;;;7.18;3.08;;;;;;;26.01;38.68;99654.97;4484169;32;33607;-70
2021/06/16 00:04:24;;;;;;;11.02;3.20;;;;;;;25.99;38.72;99655.22;4484515;32;33922;-66
2021/06/16 00:06:51;;;;;;;4.72;2.72;;;;;;;25.98;38.65;99656.31;4484777;32;34631;-71
2021/06/16 00:09:19;;;;;;;7.78;3.08;;;;;;;25.99;38.59;99651.66;4484409;32;33921;-67
2021/06/16 00:11:48;;;;;;;10.30;3.60;;;;;;;26.00;38.59;99653.31;4484103;32;33621;-71
2021/06/16 00:14:18;;;;;;;5.55;3.00;;;;;;;25.98;38.81;99658.22;4484180;32;35025;-68
2021/06/16 00:16:45;;;;;;;4.80;3.05;;;;;;;25.97;38.97;99681.97;4484466;32;33475;-69
2021/06/16 00:19:13;;;;;;;6.45;3.03;;;;;;;25.98;38.64;99683.66;4484471;32;34186;-70
2021/06/16 00:21:41;;;;;;;7.20;2.70;;;;;;;25.97;38.74;99686.59;4483993;32;32799;-69
2021/06/16 00:24:08;;;;;;;4.93;3.28;;;;;;;25.97;38.71;99689.34;4484382;32;33963;-68
2021/06/16 00:26:36;;;;;;;5.97;3.03;;;;;;;25.95;38.36;99682.22;4484261;32;33778;-69
2021/06/16 00:29:04;;;;;;;14.43;3.78;;;;;;;25.95;38.29;99687.69;4484579;32;34021;-69
2021/06/16 00:31:32;;;;;;;9.48;3.10;;;;;;;25.96;38.38;99683.03;4484003;32;33301;-68
2021/06/16 00:34:00;;;;;;;8.68;3.35;;;;;;;25.97;38.35;99681.13;4484263;32;33723;-70
2021/06/16 00:36:28;;;;;;;6.25;2.85;;;;;;;25.95;38.28;99668.56;4483425;32;33948;-70
2021/06/16 00:38:55;;;;;;;7.87;3.00;;;;;;;25.97;38.75;99681.13;4484182;32;33821;-69
2021/06/16 00:41:23;;;;;;;7.62;3.10;;;;;;;25.94;38.46;99675.09;4483964;32;34201;-70
2021/06/16 00:43:51;;;;;;;7.57;3.30;;;;;;;25.95;38.58;99686.88;4484019;32;34617;-67
2021/06/16 00:46:18;;;;;;;7.43;3.30;;;;;;;25.94;38.49;99685.22;4484088;32;33955;-68
2021/06/16 00:48:48;;;;;;;7.95;3.30;;;;;;;25.93;38.35;99678.09;4484102;32;34887;-70
2021/06/16 00:51:16;;;;;;;7.53;2.83;;;;;;;25.91;38.42;99672.03;4483782;32;34731;-68
2021/06/16 00:53:43;;;;;;;6.70;3.12;;;;;;;25.92;38.37;99677.25;4483831;32;34732;-69
2021/06/16 00:56:11;;;;;;;11.18;3.37;;;;;;;25.91;38.40;99677.50;4482699;32;35372;-70
2021/06/16 00:58:39;;;;;;;7.00;3.15;;;;;;;25.92;38.37;99682.69;4482588;32;34843;-70
2021/06/16 01:01:18;;;;;;;9.20;3.03;;;;;;;25.92;38.24;99669.03;4482492;32;34189;-68
2021/06/16 01:03:59;;;;;;;5.72;3.55;;;;;;;25.94;38.16;99674.28;4482539;32;33860;-67
2021/06/16 01:06:28;;;;;;;;;;;;;;;25.92;38.34;99670.94;4474722;32;33922;-69
2021/06/16 01:09:14;;;;;;;10.27;3.20;;;;;;;26.00;38.18;99665.09;4468604;32;35010;-67
2021/06/16 01:12:09;;;;;;;9.23;3.17;;;;;;;25.94;38.32;99674.28;4468094;32;33617;-67
2021/06/16 01:14:43;;;;;;;9.32;3.40;;;;;;;25.91;38.31;99666.56;4467957;32;33850;-69
2021/06/16 01:17:10;;;;;;;9.00;3.22;;;;;;;25.88;38.48;99665.16;4466728;32;33660;-68
2021/06/16 01:19:51;;;;;;;5.97;3.30;;;;;;;25.87;38.27;99665.37;4465771;32;34799;-68
2021/06/16 01:22:23;;;;;;;7.85;3.08;;;;;;;25.89;38.27;99666.81;4483821;32;34457;-68
2021/06/16 01:24:52;;;;;;;8.07;2.90;;;;;;;25.88;38.25;99665.16;4482491;32;34011;-67
2021/06/16 01:27:20;;;;;;;8.00;3.45;;;;;;;25.88;38.32;99661.56;4483993;32;34051;-67
2021/06/16 01:29:47;;;;;;;11.93;3.22;;;;;;;25.87;38.38;99677.16;4482448;32;34396;-68
2021/06/16 01:32:15;;;;;;;9.20;3.62;;;;;;;25.87;38.46;99676.31;4482041;32;33477;-67
2021/06/16 01:34:43;;;;;;;7.05;3.17;;;;;;;25.87;38.43;99668.94;4481909;32;33546;-69
2021/06/16 01:37:11;;;;;;;7.07;3.30;;;;;;;25.87;38.29;99666.22;4481414;32;33934;-71
2021/06/16 01:39:38;;;;;;;8.75;3.30;;;;;;;25.86;38.39;99675.50;4483356;32;34166;-70
2021/06/16 01:42:09;;;;;;;9.07;3.12;;;;;;;25.87;38.22;99668.94;4481701;32;33563;-67
2021/06/16 01:44:37;;;;;;;9.70;3.40;;;;;;;25.86;38.25;99671.94;4482178;32;33991;-70
2021/06/16 01:47:05;;;;;;;10.50;3.53;;;;;;;25.87;38.22;99673.59;4481672;32;33911;-67
2021/06/16 01:49:32;;;;;;;7.45;3.60;;;;;;;25.86;38.18;99659.09;4481603;32;33873;-70
2021/06/16 01:52:00;;;;;;;7.18;3.53;;;;;;;25.85;38.22;99660.19;4483199;32;33262;-70
2021/06/16 01:54:28;;;;;;;8.20;3.60;;;;;;;25.86;38.22;99664.56;4469211;32;33881;-67
2021/06/16 01:56:55;;;;;;;8.40;3.37;;;;;;;25.86;38.33;99661.81;4482099;32;33580;-70
2021/06/16 01:59:23;;;;;;;6.70;3.58;;;;;;;25.84;38.28;99664.00;4469311;32;33988;-70
2021/06/16 02:01:51;;;;;;;7.45;3.22;;;;;;;25.84;38.21;99663.16;4482823;32;33724;-69
2021/06/16 02:04:19;;;;;;;6.87;3.67;;;;;;;25.84;38.13;99664.00;4483267;32;33836;-69
2021/06/16 02:06:54;;;;;;;6.30;3.33;;;;;;;25.84;38.23;99668.63;4483199;32;33844;-71
2021/06/16 02:09:23;;;;;;;8.15;3.75;;;;;;;25.84;38.27;99666.72;4483068;32;34824;-71
2021/06/16 02:11:50;;;;;;;8.93;3.23;;;;;;;25.84;38.20;99666.72;4465899;32;34747;-68
2021/06/16 02:14:19;;;;;;;7.62;3.25;;;;;;;25.86;38.21;99669.19;4466304;32;33713;-70
2021/06/16 02:16:50;;;;;;;8.85;3.17;;;;;;;25.83;38.41;99669.69;4453275;32;34196;-68
2021/06/16 02:19:26;;;;;;;7.12;3.53;;;;;;;25.83;38.28;99675.97;4453133;32;35737;-66
2021/06/16 02:21:54;;;;;;;6.70;3.20;;;;;;;25.83;38.17;99681.44;4474359;32;33821;-67
2021/06/16 02:24:25;;;;;;;9.40;3.33;;;;;;;25.83;38.17;99678.72;4481688;32;33606;-71
2021/06/16 02:26:53;;;;;;;5.80;3.75;;;;;;;25.82;38.12;99676.22;4482695;32;34927;-70
2021/06/16 02:29:21;;;;;;;8.30;3.60;;;;;;;25.81;38.14;99672.66;4482721;32;32875;-70
2021/06/16 02:31:49;;;;;;;6.18;3.37;;;;;;;25.80;38.19;99671.03;4482852;32;33631;-68
2021/06/16 02:34:16;;;;;;;6.30;3.37;;;;;;;25.80;38.11;99665.56;4482477;32;33780;-70
2021/06/16 02:36:45;;;;;;;10.02;3.28;;;;;;;25.81;38.11;99669.12;4482818;32;33903;-71
2021/06/16 02:39:20;;;;;;;7.00;3.85;;;;;;;25.79;38.14;99668.53;4482735;32;33926;-69
2021/06/16 02:41:48;;;;;;;6.18;3.55;;;;;;;25.81;38.15;99669.12;4481480;32;33719;-69
2021/06/16 02:44:17;;;;;;;8.35;3.60;;;;;;;25.79;38.13;99665.81;4482505;32;34601;-68
2021/06/16 02:46:48;;;;;;;8.52;3.33;;;;;;;25.78;38.38;99669.59;4481441;32;33799;-71
2021/06/16 02:49:16;;;;;;;7.30;3.62;;;;;;;25.79;38.53;99674.00;4482610;32;34557;-67
2021/06/16 02:51:44;;;;;;;8.43;3.80;;;;;;;25.79;38.50;99677.56;4481433;32;34299;-70
2021/06/16 02:54:14;;;;;;;10.65;3.62;;;;;;;25.80;38.38;99681.13;4481234;32;33866;-65
2021/06/16 02:56:42;;;;;;;10.43;3.80;;;;;;;25.79;38.25;99682.22;4481201;32;34688;-69
2021/06/16 02:59:11;;;;;;;9.73;4.03;;;;;;;25.78;38.02;99684.09;4468912;32;34089;-70
2021/06/16 03:01:38;;;;;;;7.80;3.95;;;;;;;25.77;38.13;99687.91;4483567;32;33531;-70
2021/06/16 03:04:06;;;;;;;11.75;3.95;;;;;;;25.77;38.18;99689.81;4483422;32;33813;-68
2021/06/16 03:06:34;;;;;;;10.75;4.37;;;;;;;25.76;38.21;99688.16;4484768;32;33572;-71
2021/06/16 03:09:02;;;;;;;8.15;3.60;;;;;;;25.74;38.19;99685.66;4483529;32;34571;-70
2021/06/16 03:11:31;;;;;;;11.45;3.90;;;;;;;25.74;38.22;99682.06;4480188;32;33446;-68
2021/06/16 03:13:59;;;;;;;13.00;4.03;;;;;;;25.74;38.37;99695.72;4482749;32;33649;-68
2021/06/16 03:16:27;;;;;;;11.65;4.12;;;;;;;25.77;38.35;99701.56;4483449;32;34920;-65
2021/06/16 03:18:58;;;;;;;11.95;3.42;;;;;;;25.75;38.13;99700.12;4469665;32;33788;-64
2021/06/16 03:21:26;;;;;;;8.48;3.92;;;;;;;25.77;38.45;99706.19;4482824;32;35229;-61
2021/06/16 03:23:53;;;;;;;13.07;4.05;;;;;;;25.76;38.40;99704.56;4483525;32;33569;-64
2021/06/16 03:26:23;;;;;;;9.75;3.90;;;;;;;25.76;38.36;99701.81;4466487;32;33828;-68
2021/06/16 03:28:51;;;;;;;9.75;4.32;;;;;;;25.75;38.30;99708.34;4463609;32;33989;-64
2021/06/16 03:31:19;;;;;;;8.88;3.87;;;;;;;25.76;38.23;99707.28;4482259;32;34667;-65
2021/06/16 03:33:47;;;;;;;11.15;4.07;;;;;;;25.76;38.30;99705.38;4469369;32;33813;-67
2021/06/16 03:36:15;;;;;;;9.18;3.97;;;;;;;25.76;38.20;99713.56;4483910;32;33866;-65
2021/06/16 03:38:43;;;;;;;7.93;3.60;;;;;;;25.77;38.39;99711.66;4482895;32;34755;-69
2021/06/16 03:41:12;;;;;;;9.05;3.70;;;;;;;25.77;38.26;99703.47;4477611;32;34504;-64
2021/06/16 03:43:39;;;;;;;7.47;3.35;;;;;;;25.77;38.26;99709.75;4470490;32;33663;-67
2021/06/16 03:46:07;;;;;;;8.50;3.95;;;;;;;25.77;38.27;99711.66;4458913;32;33842;-68
2021/06/16 03:48:36;;;;;;;10.00;3.53;;;;;;;25.76;38.39;99720.94;4469435;32;34043;-66
2021/06/16 03:51:04;;;;;;;7.57;3.40;;;;;;;25.76;38.25;99710.03;4482512;32;33474;-68
2021/06/16 03:53:31;;;;;;;8.40;3.95;;;;;;;25.77;38.45;99717.13;4483890;32;34588;-64
2021/06/16 03:55:59;;;;;;;6.75;4.00;;;;;;;25.77;38.35;99719.87;4482407;32;33761;-65
2021/06/16 03:58:27;;;;;;;9.07;4.15;;;;;;;25.78;38.30;99716.06;4469555;32;34025;-64
2021/06/16 04:00:55;;;;;;;10.10;3.75;;;;;;;25.77;38.45;99720.69;4482537;32;33620;-68
2021/06/16 04:03:23;;;;;;;6.53;3.70;;;;;;;25.77;38.37;99726.16;4469382;32;34468;-68
2021/06/16 04:05:51;;;;;;;9.43;3.80;;;;;;;25.77;38.46;99731.63;4483853;32;34721;-66
2021/06/16 04:08:19;;;;;;;8.43;3.97;;;;;;;25.76;38.36;99737.34;4482099;32;34612;-68
2021/06/16 04:10:47;;;;;;;11.60;4.07;;;;;;;25.77;38.44;99731.63;4477514;32;33269;-66
2021/06/16 04:13:14;;;;;;;9.68;4.25;;;;;;;25.78;38.48;99735.19;4463817;32;33980;-65
2021/06/16 04:15:42;;;;;;;7.60;3.45;;;;;;;25.78;38.50;99733.28;4483214;32;33885;-67
2021/06/16 04:18:10;;;;;;;8.18;4.12;;;;;;;25.79;38.57;99740.44;4483232;32;35117;-68
2021/06/16 04:20:38;;;;;;;7.45;3.80;;;;;;;25.78;38.53;99744.22;4483601;32;33542;-64
2021/06/16 04:23:05;;;;;;;7.00;3.35;;;;;;;25.79;38.55;99731.41;4483696;32;33277;-69
2021/06/16 04:25:33;;;;;;;7.75;3.50;;;;;;;25.79;38.61;99734.13;4483994;32;33693;-74
2021/06/16 04:28:01;;;;;;;7.20;3.78;;;;;;;25.78;38.61;99733.28;4484020;32;36229;-68
2021/06/16 04:30:28;;;;;;;7.72;3.65;;;;;;;25.80;38.60;99733.87;4484161;32;33258;-67
2021/06/16 04:32:56;;;;;;;8.82;3.85;;;;;;;25.79;38.64;99745.06;4484021;32;34508;-67
2021/06/16 04:35:24;;;;;;;8.57;3.78;;;;;;;25.80;38.64;99738.53;4484000;32;33944;-68
2021/06/16 04:37:52;;;;;;;9.95;3.42;;;;;;;25.78;38.66;99740.66;4484197;32;34758;-68
2021/06/16 04:40:20;;;;;;;8.00;3.75;;;;;;;25.78;38.69;99737.91;4484104;32;33736;-67
2021/06/16 04:42:48;;;;;;;6.68;3.47;;;;;;;25.78;38.69;99741.47;4484391;32;34981;-71
2021/06/16 04:45:15;;;;;;;10.95;4.03;;;;;;;25.77;38.69;99742.56;4483993;32;34838;-75
2021/06/16 04:47:43;;;;;;;13.23;3.90;;;;;;;25.79;38.65;99742.34;4482770;32;34038;-68
2021/06/16 04:50:12;;;;;;;13.05;3.72;;;;;;;25.79;38.71;99745.06;4483959;32;34426;-68
2021/06/16 04:52:40;;;;;;;11.07;3.65;;;;;;;25.77;38.70;99736.25;4483239;32;34716;-69
2021/06/16 04:55:10;;;;;;;15.48;4.30;;;;;;;25.77;38.65;99739.81;4484037;32;33885;-68
2021/06/16 04:57:37;;;;;;;15.93;4.30;;;;;;;25.76;38.70;99737.34;4483639;32;34013;-68
2021/06/16 05:00:06;;;;;;;14.75;4.37;;;;;;;25.76;38.74;99743.63;4484150;32;33551;-68
2021/06/16 05:02:34;;;;;;;13.85;4.55;;;;;;;25.76;38.72;99742.81;4483349;32;34714;-68
2021/06/16 05:05:03;;;;;;;17.65;4.18;;;;;;;25.77;38.71;99747.19;4468798;32;33791;-70
2021/06/16 05:07:30;;;;;;;18.02;3.70;;;;;;;25.74;38.71;99743.03;4483509;32;34078;-69
2021/06/16 05:09:58;;;;;;;14.13;3.95;;;;;;;25.75;38.73;99747.41;4483798;32;33568;-70
2021/06/16 05:12:26;;;;;;;16.55;5.65;;;;;;;25.75;38.71;99747.41;4483316;32;33795;-69
2021/06/16 05:14:53;;;;;;;9.35;5.62;;;;;;;25.75;38.73;99749.31;4483748;32;33893;-70
2021/06/16 05:17:22;;;;;;;12.73;5.37;;;;;;;25.75;38.79;99749.31;4483826;32;34029;-69
2021/06/16 05:19:55;;;;;;;16.33;5.65;;;;;;;25.73;38.75;99752.28;4483404;32;33526;-70
2021/06/16 05:22:25;;;;;;;11.43;4.85;;;;;;;25.74;38.71;99745.78;4481243;32;33761;-69
2021/06/16 05:24:53;;;;;;;9.35;5.05;;;;;;;25.74;38.71;99748.50;4482290;32;33770;-70
2021/06/16 05:27:20;;;;;;;15.48;5.72;;;;;;;25.74;38.69;99753.97;4482394;32;33985;-70
2021/06/16 05:29:51;;;;;;;8.45;4.37;;;;;;;25.75;38.65;99754.78;4483622;32;33485;-68
2021/06/16 05:32:18;;;;;;;7.78;3.78;;;;;;;25.75;38.65;99760.25;4482728;31;33760;-68
2021/06/16 05:34:46;;;;;;;7.55;3.47;;;;;;;25.76;38.67;99754.56;4483652;32;34126;-69
2021/06/16 05:37:14;;;;;;;7.95;4.28;;;;;;;25.74;38.67;99753.09;4483573;32;35114;-69
2021/06/16 05:39:41;;;;;;;9.02;4.22;;;;;;;25.74;38.62;99755.84;4483227;32;35181;-69
2021/06/16 05:42:09;;;;;;;7.62;3.87;;;;;;;25.75;38.62;99760.25;4483277;32;34678;-70
2021/06/16 05:44:36;;;;;;;9.63;3.42;;;;;;;25.76;38.59;99760.03;4483361;32;33953;-71
2021/06/16 05:47:04;;;;;;;7.62;4.00;;;;;;;25.76;38.61;99751.00;4483238;32;34056;-71
2021/06/16 05:49:33;;;;;;;8.88;3.97;;;;;;;25.75;38.61;99754.78;4483727;32;33536;-70
2021/06/16 05:52:01;;;;;;;7.32;3.92;;;;;;;25.75;38.58;99758.34;4483124;32;33448;-66
2021/06/16 05:54:29;;;;;;;8.35;4.00;;;;;;;25.75;38.58;99749.31;4483283;32;34801;-70
2021/06/16 05:56:58;;;;;;;8.07;3.60;;;;;;;25.75;38.57;99754.78;4483256;32;33957;-70
2021/06/16 05:59:26;;;;;;;10.07;4.32;;;;;;;25.75;38.57;99752.88;4483235;32;33187;-70
2021/06/16 06:01:54;;;;;;;9.90;3.65;;;;;;;25.76;38.55;99759.22;4482714;32;33776;-67
2021/06/16 06:04:22;;;;;;;9.25;3.85;;;;;;;25.75;38.55;99754.78;4483147;32;33884;-70
2021/06/16 06:06:49;;;;;;;6.72;3.83;;;;;;;25.74;38.54;99762.16;4483192;32;34782;-69
2021/06/16 06:09:17;;;;;;;5.82;3.70;;;;;;;25.75;38.53;99768.47;4482878;32;33982;-70
2021/06/16 06:11:45;;;;;;;7.12;3.80;;;;;;;25.74;38.53;99767.63;4482427;32;34639;-69
2021/06/16 06:14:12;;;;;;;8.43;3.97;;;;;;;25.71;38.56;99768.09;4482975;32;34026;-69
2021/06/16 06:16:40;;;;;;;6.65;3.45;;;;;;;25.74;38.52;99766.78;4482802;32;34124;-69
2021/06/16 06:19:08;;;;;;;6.95;3.42;;;;;;;25.74;38.49;99770.38;4482889;32;33517;-70
2021/06/16 06:21:35;;;;;;;9.20;4.03;;;;;;;25.73;38.51;99770.59;4482845;32;33885;-64
2021/06/16 06:24:04;;;;;;;7.78;4.05;;;;;;;25.73;38.50;99774.16;4482785;32;34505;-70
2021/06/16 06:26:32;;;;;;;7.12;3.83;;;;;;;25.73;38.48;99774.16;4482436;32;33835;-68
2021/06/16 06:29:00;;;;;;;6.37;3.00;;;;;;;25.74;38.47;99772.25;4482593;32;34641;-69
2021/06/16 06:31:28;;;;;;;8.32;3.30;;;;;;;25.74;38.43;99781.28;4482888;32;34701;-70
2021/06/16 06:33:56;;;;;;;9.63;3.08;;;;;;;25.73;38.43;99785.06;4482905;32;33878;-71
2021/06/16 06:36:24;;;;;;;10.68;3.30;;;;;;;25.73;38.31;99778.78;4484745;32;33903;-66
2021/06/16 06:38:51;;;;;;;8.13;3.33;;;;;;;25.73;38.11;99784.25;4484804;32;34247;-70
2021/06/16 06:41:20;;;;;;;8.95;3.75;;;;;;;25.72;38.09;99783.44;4483695;32;33828;-70
2021/06/16 06:43:47;;;;;;;7.22;3.30;;;;;;;25.74;38.23;99788.63;4484525;32;33960;-70
2021/06/16 06:46:16;;;;;;;6.65;3.37;;;;;;;25.73;38.15;99790.53;4484892;32;34060;-71
2021/06/16 06:48:44;;;;;;;5.05;3.17;;;;;;;25.71;38.19;99784.50;4484902;32;33481;-70
2021/06/16 06:51:12;;;;;;;9.30;3.80;;;;;;;25.75;38.05;99787.59;4484375;32;34632;-70
2021/06/16 06:53:39;;;;;;;8.07;3.30;;;;;;;25.75;38.06;99787.59;4484555;32;35450;-69
2021/06/16 06:56:07;;;;;;;7.43;3.45;;;;;;;25.75;37.82;99776.66;4484853;32;34735;-70
2021/06/16 06:58:35;;;;;;;6.62;3.60;;;;;;;25.76;37.73;99781.06;4484590;32;33413;-70
2021/06/16 07:01:02;;;;;;;5.62;3.00;;;;;;;25.75;37.68;99782.13;4484446;32;33794;-69
2021/06/16 07:03:33;;;;;;;7.07;3.05;;;;;;;25.74;37.79;99781.28;4484851;32;33617;-69
2021/06/16 07:06:01;;;;;;;8.45;3.00;;;;;;;25.76;37.84;99781.06;4484617;32;34560;-69
2021/06/16 07:08:28;;;;;;;7.00;3.05;;;;;;;25.78;37.81;99784.38;4484809;32;34231;-71
2021/06/16 07:10:56;;;;;;;5.95;3.25;;;;;;;25.78;37.72;99776.19;4484512;32;34507;-69
2021/06/16 07:13:24;;;;;;;6.72;3.33;;;;;;;25.80;37.73;99776.78;4483282;32;35236;-71
2021/06/16 07:16:07;;;;;;;7.07;3.40;;;;;;;25.82;37.71;99782.81;4484677;32;34842;-70
2021/06/16 07:18:35;;;;;;;6.40;3.35;;;;;;;25.83;37.54;99781.75;4484359;32;34324;-70
2021/06/16 07:21:03;;;;;;;6.00;3.28;;;;;;;25.84;37.58;99772.50;4484313;32;33487;-70
2021/06/16 07:23:31;;;;;;;7.37;3.22;;;;;;;25.84;37.57;99786.16;4484527;32;35430;-67
2021/06/16 07:25:58;;;;;;;6.47;3.47;;;;;;;25.87;37.50;99774.72;4484833;32;34914;-70
2021/06/16 07:28:26;;;;;;;6.85;3.22;;;;;;;25.87;37.53;99766.53;4484581;32;33628;-70
2021/06/16 07:30:53;;;;;;;7.05;3.17;;;;;;;25.88;37.30;99770.91;4484327;32;33719;-69
2021/06/16 07:33:21;;;;;;;7.20;2.95;;;;;;;25.90;37.33;99774.25;4484042;32;33832;-70
2021/06/16 07:35:51;;;;;;;5.68;2.87;;;;;;;25.90;37.41;99780.53;4484777;32;34685;-70
2021/06/16 07:38:19;;;;;;;7.15;3.00;;;;;;;25.92;37.17;99780.28;4484641;32;33409;-70
2021/06/16 07:40:46;;;;;;;7.30;3.60;;;;;;;25.92;37.27;99783.84;4484167;32;33844;-70
2021/06/16 07:43:15;;;;;;;6.10;3.00;;;;;;;25.93;37.14;99779.25;4484288;32;33929;-70
2021/06/16 07:45:43;;;;;;;5.90;3.57;;;;;;;25.94;37.07;99786.38;4483534;32;34096;-70
2021/06/16 07:48:10;;;;;;;6.87;2.97;;;;;;;25.95;37.12;99782.53;4484256;32;33141;-69
2021/06/16 07:50:38;;;;;;;6.70;2.92;;;;;;;25.95;37.20;99780.63;4484234;32;34759;-70
2021/06/16 07:53:06;;;;;;;6.37;3.30;;;;;;;25.97;37.23;99785.84;4484432;32;33849;-70
2021/06/16 07:55:34;;;;;;;5.55;2.95;;;;;;;25.98;37.12;99786.72;4484265;32;33969;-70
2021/06/16 07:58:03;;;;;;;5.03;2.83;;;;;;;25.98;37.21;99782.06;4484434;32;33574;-69
2021/06/16 08:00:31;;;;;;;8.13;3.10;;;;;;;25.99;37.03;99777.44;4484064;32;33941;-69
2021/06/16 08:02:59;;;;;;;5.20;2.95;;;;;;;26.00;36.97;99779.09;4484211;32;33810;-69
2021/06/16 08:05:27;;;;;;;5.28;2.85;;;;;;;25.99;36.90;99780.16;4484281;32;34720;-69
2021/06/16 08:07:54;;;;;;;5.32;3.00;;;;;;;25.99;36.97;99786.47;4484394;32;34482;-68
2021/06/16 08:10:22;;;;;;;6.30;3.12;;;;;;;26.00;36.88;99779.09;4483805;32;34620;-68
2021/06/16 08:12:50;;;;;;;5.72;3.30;;;;;;;26.00;36.76;99779.91;4484174;32;33670;-68
2021/06/16 08:15:17;;;;;;;9.63;3.17;;;;;;;26.01;36.80;99776.09;4484314;32;33832;-70
2021/06/16 08:17:45;;;;;;;5.43;3.17;;;;;;;26.00;36.86;99779.91;4484114;32;33424;-68
2021/06/16 08:20:13;;;;;;;7.80;3.03;;;;;;;26.00;36.68;99776.34;4483664;32;34694;-70
2021/06/16 08:22:41;;;;;;;5.82;3.22;;;;;;;26.01;36.64;99784.28;4484182;32;34145;-70
2021/06/16 08:25:11;;;;;;;5.57;3.15;;;;;;;26.01;36.62;99789.75;4483895;32;34293;-70
2021/06/16 08:27:39;;;;;;;6.43;3.33;;;;;;;26.01;36.76;99786.19;4484292;32;33390;-70
2021/06/16 08:30:08;;;;;;;8.20;3.85;;;;;;;26.00;36.36;99785.38;4483792;32;33810;-69
2021/06/16 08:32:37;;;;;;;9.57;3.75;;;;;;;26.01;36.37;99781.56;4484231;32;34801;-70
2021/06/16 08:35:04;;;;;;;8.60;3.35;;;;;;;26.02;36.39;99785.97;4482859;32;33296;-70
2021/06/16 08:37:32;;;;;;;8.50;3.00;;;;;;;26.02;36.47;99777.78;4484055;32;34430;-70
2021/06/16 08:40:00;;;;;;;6.37;3.37;;;;;;;26.03;36.53;99784.06;4483917;32;33486;-69
2021/06/16 08:42:29;;;;;;;9.35;3.08;;;;;;;26.02;36.68;99780.50;4483750;32;32794;-70
2021/06/16 08:44:58;;;;;;;4.68;2.80;;;;;;;26.03;36.65;99784.06;4483955;32;33999;-70
2021/06/16 08:47:26;;;;;;;6.15;2.97;;;;;;;26.03;36.62;99789.53;4484117;32;33938;-70
2021/06/16 08:49:55;;;;;;;5.85;3.10;;;;;;;26.05;36.18;99784.66;4484062;32;33723;-70
2021/06/16 08:52:22;;;;;;;8.13;3.20;;;;;;;26.04;36.34;99786.56;4482991;32;33384;-70
2021/06/16 08:54:50;;;;;;;7.07;3.03;;;;;;;26.03;36.12;99789.53;4483957;32;34745;-68
2021/06/16 08:57:17;;;;;;;5.62;2.90;;;;;;;26.02;35.75;99785.97;4482583;32;33537;-70
2021/06/16 08:59:45;;;;;;;7.40;3.17;;;;;;;26.04;35.46;99785.72;4483777;32;33743;-68
2021/06/16 09:02:13;;;;;;;9.60;2.97;;;;;;;26.04;35.69;99783.81;4483680;32;33831;-69
2021/06/16 09:04:48;;;;;;;8.32;3.28;;;;;;;26.04;35.57;99777.53;4483831;32;33988;-69
2021/06/16 09:07:18;;;;;;;5.57;2.67;;;;;;;26.04;35.31;99778.34;4483971;32;33248;-70
2021/06/16 09:09:48;;;;;;;7.05;3.30;;;;;;;26.04;35.13;99774.78;4483848;32;34020;-70
2021/06/16 09:12:18;;;;;;;7.32;2.92;;;;;;;26.03;34.94;99779.44;4482191;32;33761;-70
2021/06/16 09:14:53;;;;;;;6.65;2.80;;;;;;;26.03;35.32;99784.91;4482623;32;34823;-70
2021/06/16 09:17:22;;;;;;;8.13;3.22;;;;;;;26.04;35.60;99777.53;4483673;32;34265;-68
2021/06/16 09:19:59;;;;;;;4.57;2.85;;;;;;;26.04;35.73;99788.47;4482331;32;33526;-70
2021/06/16 09:22:37;;;;;;;7.47;3.33;;;;;;;26.03;35.34;99789.53;4483454;32;34530;-70
2021/06/16 09:25:08;;;;;;;7.62;3.15;;;;;;;26.03;35.22;99795.00;4483559;32;33951;-69
2021/06/16 09:27:43;;;;;;;5.95;2.85;;;;;;;26.03;35.23;99795.84;4476885;32;33271;-70
2021/06/16 09:30:21;;;;;;;7.30;3.00;;;;;;;26.03;35.28;99782.16;4480117;32;33856;-69
2021/06/16 09:32:56;;;;;;;8.02;3.30;;;;;;;26.06;35.20;99791.75;4482337;32;34734;-68
2021/06/16 09:35:26;;;;;;;5.25;2.95;;;;;;;26.04;35.13;99794.75;4482193;32;34746;-70
2021/06/16 09:37:54;;;;;;;7.65;3.10;;;;;;;26.04;35.20;99781.09;4482223;32;33562;-68
2021/06/16 09:40:40;;;;;;;4.47;2.47;;;;;;;26.05;35.41;99780.00;4482396;32;34985;-69
2021/06/16 09:43:10;;;;;;;5.95;2.70;;;;;;;26.08;35.64;99784.16;4480811;32;33901;-68
2021/06/16 09:45:38;;;;;;;6.68;3.00;;;;;;;26.06;35.90;99780.81;4482508;32;34794;-68
2021/06/16 09:48:28;;;;;;;7.90;2.70;;;;;;;26.06;36.00;99783.56;4483062;32;33494;-70
2021/06/16 09:51:25;;;;;;;6.80;3.03;;;;;;;26.07;35.83;99777.88;4481601;32;33479;-67
2021/06/16 09:53:56;;;;;;;4.87;2.78;;;;;;;26.08;35.54;99779.53;4462074;32;33773;-68
2021/06/16 09:56:25;;;;;;;4.93;3.08;;;;;;;26.06;35.66;99778.09;4467501;32;34107;-69
2021/06/16 09:58:53;;;;;;;6.40;3.00;;;;;;;26.06;35.41;99780.81;4474358;32;34253;-69
2021/06/16 10:01:44;;;;;;;6.18;2.80;;;;;;;26.06;35.34;99783.56;4483428;32;34558;-70
2021/06/16 10:04:41;;;;;;;5.35;2.78;;;;;;;26.10;35.29;99785.56;4483230;32;34837;-70
2021/06/16 10:07:16;;;;;;;5.40;2.70;;;;;;;26.11;35.21;99783.66;4483012;32;34988;-69
2021/06/16 10:10:08;;;;;;;6.82;2.65;;;;;;;26.08;35.30;99778.69;4483809;32;33549;-68
2021/06/16 10:12:36;;;;;;;6.37;2.75;;;;;;;26.09;35.40;99778.44;4477545;31;34506;-70
2021/06/16 10:15:09;;;;;;;6.37;2.83;;;;;;;26.08;35.11;99778.69;4485191;32;34926;-71
2021/06/16 10:17:37;;;;;;;6.20;2.75;;;;;;;26.07;35.00;99783.34;4484981;32;33772;-69
2021/06/16 10:20:06;;;;;;;7.95;2.90;;;;;;;26.08;35.01;99774.06;4484534;32;34310;-68
2021/06/16 10:22:34;;;;;;;5.12;2.90;;;;;;;26.06;35.01;99770.72;4484934;32;34673;-69
2021/06/16 10:25:02;;;;;;;5.37;2.67;;;;;;;26.08;34.85;99771.31;4484876;32;33879;-69
2021/06/16 10:27:33;;;;;;;6.85;2.40;;;;;;;26.08;34.88;99773.22;4485068;32;34401;-70
2021/06/16 10:30:01;;;;;;;;;;;;;;;26.09;34.86;99774.88;4484703;32;34884;-70
2021/06/16 10:32:50;;;;;;;9.00;2.97;;;;;;;26.20;34.76;99771.25;4485115;32;33920;-69
2021/06/16 10:35:36;;;;;;;6.62;2.53;;;;;;;26.14;34.81;99764.03;4485006;32;33873;-70
2021/06/16 10:38:12;;;;;;;5.22;2.55;;;;;;;26.10;34.78;99771.91;4484925;32;33970;-67
2021/06/16 10:40:52;;;;;;;4.00;2.35;;;;;;;26.10;34.79;99765.59;4474814;32;33446;-70
2021/06/16 10:43:37;;;;;;;5.18;2.85;;;;;;;26.09;34.90;99763.94;4484915;32;33871;-70
2021/06/16 10:46:13;;;;;;;4.55;2.37;;;;;;;26.08;34.95;99760.38;4483489;32;33842;-69
2021/06/16 10:48:54;;;;;;;6.90;2.78;;;;;;;26.08;34.81;99759.56;4484379;32;35001;-70
2021/06/16 10:51:24;;;;;;;4.43;2.30;;;;;;;26.08;34.89;99756.81;4484629;32;33355;-69
2021/06/16 10:54:21;;;;;;;3.83;2.37;;;;;;;26.08;34.98;99765.84;4483549;32;32628;-69
2021/06/16 10:57:11;;;;;;;4.47;2.70;;;;;;;26.11;34.78;99759.03;4484857;32;34720;-70
2021/06/16 10:59:41;;;;;;;8.82;3.22;;;;;;;26.08;34.89;99757.66;4484337;32;34066;-70
2021/06/16 11:02:10;;;;;;;9.43;3.12;;;;;;;26.09;35.18;99753.00;4484515;32;33513;-68
2021/06/16 11:04:37;;;;;;;11.98;3.40;;;;;;;26.10;35.25;99751.94;4484772;32;34446;-70
2021/06/16 11:07:30;;;;;;;8.50;2.80;;;;;;;26.11;35.37;99750.84;4483575;32;34759;-67
2021/06/16 11:09:59;;;;;;;17.17;3.40;;;;;;;26.14;35.22;99751.19;4484950;32;34803;-68
2021/06/16 11:12:30;;;;;;;5.93;2.60;;;;;;;26.10;35.40;99747.28;4482793;32;34716;-69
2021/06/16 11:15:05;;;;;;;11.18;2.90;;;;;;;26.12;35.29;99747.06;4480993;32;34729;-69
2021/06/16 11:17:33;;;;;;;5.03;2.70;;;;;;;26.12;35.42;99744.31;4481589;32;33847;-70
2021/06/16 11:20:10;;;;;;;7.15;2.85;;;;;;;26.11;35.48;99738.03;4480838;32;34698;-69
2021/06/16 11:22:38;;;;;;;5.45;2.60;;;;;;;26.12;35.29;99736.13;4483917;32;34886;-68
2021/06/16 11:25:17;;;;;;;5.50;2.60;;;;;;;26.13;35.05;99737.78;4478175;32;35343;-70
2021/06/16 11:30:35;;;;;;;6.43;2.87;;;;;;;26.13;35.20;99730.41;4473501;32;34027;-69
2021/06/16 11:33:11;;;;;;;9.07;3.20;;;;;;;26.15;34.95;99744.63;4484767;32;34564;-68
2021/06/16 11:35:40;;;;;;;6.18;2.80;;;;;;;26.14;34.86;99737.50;4482593;32;33560;-70
2021/06/16 11:38:08;;;;;;;6.53;2.70;;;;;;;26.12;35.06;99742.41;4484001;32;33809;-68
2021/06/16 11:40:35;;;;;;;7.00;3.20;;;;;;;26.12;35.15;99742.41;4483835;32;34736;-69
2021/06/16 11:43:03;;;;;;;9.18;2.75;;;;;;;26.12;35.13;99731.47;4484228;32;33474;-69
2021/06/16 11:45:31;;;;;;;5.12;3.00;;;;;;;26.13;35.13;99733.13;4484983;32;33715;-69
2021/06/16 11:48:00;;;;;;;6.50;2.50;;;;;;;26.14;35.12;99734.78;4484362;32;33524;-69